Time;durP1;ratioP1;P1;durP2;ratioP2;P2;SDS_P1;SDS_P2;PMS_P1;PMS_P2;Temp;Humidity;BMP_temperature;BMP_pressure;BME280_temperature;BME280_humidity;BME280_pressure;Samples;Min_cycle;Max_cycle;Signal;HPM_P1;HPM_P2
2022/07/24 00:00:19;;;;;;;;;23.67;21.33;;;;;22.72;66.39;101529.84;5047559;28;45238;-73
2022/07/24 00:02:44;;;;;;;;;22.33;22.33;;;;;22.68;66.73;101534.06;5059024;28;45351;-74
2022/07/24 00:05:10;;;;;;;;;21.00;20.67;;;;;22.63;66.33;101536.66;5059472;28;45427;-74
2022/07/24 00:07:36;;;;;;;;;23.00;21.67;;;;;22.61;66.71;101538.78;5041351;28;45299;-73
2022/07/24 00:10:04;;;;;;;;;25.33;25.00;;;;;22.53;66.92;101534.50;5041172;28;45373;-73
2022/07/24 00:12:30;;;;;;;;;23.00;23.00;;;;;22.49;67.50;101536.88;5059177;28;46150;-73
2022/07/24 00:14:55;;;;;;;;;22.67;22.67;;;;;22.48;67.50;101532.53;5055651;28;46272;-74
2022/07/24 00:17:21;;;;;;;;;22.67;21.67;;;;;22.48;67.34;101535.25;5064118;28;45666;-73
2022/07/24 00:19:46;;;;;;;;;23.33;23.33;;;;;22.49;66.72;101541.47;5059110;28;45375;-73
2022/07/24 00:22:11;;;;;;;;;22.33;21.33;;;;;22.48;67.49;101535.25;5059229;28;45497;-73
2022/07/24 00:24:37;;;;;;;;;24.00;22.00;;;;;22.49;67.54;101541.47;5059105;28;45332;-73
2022/07/24 00:27:02;;;;;;;;;24.33;21.67;;;;;22.49;67.20;101544.16;5059177;28;45347;-74
2022/07/24 00:29:28;;;;;;;;;23.67;22.00;;;;;22.44;67.67;101543.00;5041205;28;46236;-73
2022/07/24 00:31:53;;;;;;;;;21.00;21.00;;;;;22.41;67.91;101553.47;5058771;28;46266;-74
2022/07/24 00:34:19;;;;;;;;;23.67;22.33;;;;;22.39;68.35;101544.75;5047150;28;45737;-74
2022/07/24 00:36:44;;;;;;;;;20.33;19.67;;;;;22.36;67.95;101550.66;5059254;28;45209;-73
2022/07/24 00:39:10;;;;;;;;;22.67;21.67;;;;;22.25;68.12;101550.41;5059062;28;45557;-74
2022/07/24 00:41:36;;;;;;;;;22.00;22.00;;;;;22.21;68.38;101541.09;5050893;28;47383;-74
2022/07/24 00:44:09;;;;;;;;;19.00;19.00;;;;;22.17;68.09;101542.59;5058370;28;45355;-74
2022/07/24 00:46:36;;;;;;;;;22.00;21.33;;;;;22.15;68.37;101536.63;5059058;28;45307;-73
2022/07/24 00:49:05;;;;;;;;;21.00;21.00;;;;;22.09;68.22;101537.53;5058511;28;45439;-74
2022/07/24 00:51:31;;;;;;;;;23.67;23.67;;;;;22.05;68.94;101538.00;5058595;28;45575;-73
2022/07/24 00:53:56;;;;;;;;;21.33;21.33;;;;;22.02;69.21;101527.66;5058688;28;45434;-74
2022/07/24 00:56:22;;;;;;;;;21.00;20.00;;;;;21.95;69.30;101524.22;5040559;28;45257;-73
2022/07/24 00:58:48;;;;;;;;;20.33;18.67;;;;;21.90;69.17;101518.66;5061813;28;45516;-74
2022/07/24 01:01:14;;;;;;;;;23.33;22.00;;;;;21.82;69.36;101504.41;5057657;28;48167;-73
2022/07/24 01:03:39;;;;;;;;;23.67;23.33;;;;;21.80;69.25;101497.59;5049669;28;46125;-73
2022/07/24 01:06:06;;;;;;;;;24.00;22.33;;;;;21.82;69.44;101498.22;5062349;28;45655;-74
2022/07/24 01:08:33;;;;;;;;;19.67;18.67;;;;;21.75;69.81;101492.88;5062225;28;45458;-73
2022/07/24 01:10:59;;;;;;;;;23.00;23.00;;;;;21.76;70.05;101497.22;5062007;28;46223;-74
2022/07/24 01:13:25;;;;;;;;;26.33;24.67;;;;;21.76;69.96;101513.47;5061979;28;45339;-74
2022/07/24 01:15:50;;;;;;;;;26.67;25.33;;;;;21.75;69.70;101501.00;5064397;28;45459;-73
2022/07/24 01:18:16;;;;;;;;;25.00;24.00;;;;;21.76;69.80;101510.75;5046164;28;45431;-74
2022/07/24 01:20:46;;;;;;;;;25.67;24.67;;;;;21.70;70.09;101495.44;5062109;28;45604;-73
2022/07/24 01:23:11;;;;;;;;;28.33;25.00;;;;;21.69;70.72;101496.47;5043499;28;45372;-74
2022/07/24 01:25:37;;;;;;;;;28.00;27.00;;;;;21.70;70.46;101501.66;5044016;28;45391;-73
2022/07/24 01:28:02;;;;;;;;;27.33;27.00;;;;;21.70;70.36;101498.94;5061938;28;45412;-74
2022/07/24 01:30:27;;;;;;;;;27.33;22.33;;;;;21.66;70.58;101489.66;5061829;28;46459;-73
2022/07/24 01:32:53;;;;;;;;;26.00;25.00;;;;;21.60;71.06;101490.56;5043685;28;45399;-73
2022/07/24 01:35:18;;;;;;;;;25.00;24.00;;;;;21.59;71.13;101494.34;5061970;28;45380;-73
2022/07/24 01:37:43;;;;;;;;;21.67;21.33;;;;;21.52;71.46;101496.31;5061857;28;45354;-73
2022/07/24 01:40:09;;;;;;;;;23.67;23.67;;;;;21.44;71.26;101502.88;5055616;28;48249;-74
2022/07/24 01:42:34;;;;;;;;;22.67;22.67;;;;;21.39;71.56;101510.84;5062096;28;45489;-73
2022/07/24 01:45:00;;;;;;;;;22.00;21.67;;;;;21.34;71.38;101505.31;5061787;28;45288;-74
2022/07/24 01:47:25;;;;;;;;;25.00;23.33;;;;;21.32;71.43;101505.53;5059187;28;46098;-73
2022/07/24 01:49:50;;;;;;;;;22.00;22.00;;;;;21.28;71.33;101510.56;5039991;28;48277;-73
2022/07/24 01:52:16;;;;;;;;;20.67;20.67;;;;;21.26;71.72;101509.97;5054689;28;45343;-74
2022/07/24 01:54:41;;;;;;;;;23.00;22.33;;;;;21.23;72.26;101513.13;5061375;28;45217;-74
2022/07/24 01:57:06;;;;;;;;;25.00;24.67;;;;;21.27;71.65;101519.72;5051025;28;47135;-73
2022/07/24 01:59:32;;;;;;;;;20.67;19.67;;;;;21.22;71.80;101511.47;5061358;28;45229;-73
2022/07/24 02:01:57;;;;;;;;;23.00;20.33;;;;;21.21;72.21;101517.91;5043123;28;45274;-73
2022/07/24 02:04:23;;;;;;;;;22.67;22.33;;;;;21.15;72.07;101508.00;5061341;28;45383;-73
2022/07/24 02:06:48;;;;;;;;;23.67;23.33;;;;;21.16;72.37;101509.69;5061495;28;45403;-74
2022/07/24 02:09:13;;;;;;;;;25.33;24.00;;;;;21.09;72.39;101501.66;5061096;28;45505;-74
2022/07/24 02:11:39;;;;;;;;;20.67;20.67;;;;;21.08;72.68;101507.28;5061000;28;45217;-74
2022/07/24 02:14:05;;;;;;;;;22.67;20.67;;;;;21.07;72.69;101503.72;5061412;28;45374;-73
2022/07/24 02:16:30;;;;;;;;;23.00;23.00;;;;;21.09;72.56;101501.66;5065841;28;45526;-73
2022/07/24 02:18:55;;;;;;;;;26.67;25.67;;;;;21.05;72.82;101501.28;5061110;28;45963;-73
2022/07/24 02:21:21;;;;;;;;;23.00;23.00;;;;;21.04;73.08;101499.63;5060998;28;45307;-74
2022/07/24 02:23:46;;;;;;;;;26.33;24.67;;;;;21.02;73.13;101493.63;5061335;28;45402;-73
2022/07/24 02:26:12;;;;;;;;;24.67;24.00;;;;;21.03;72.58;101489.03;5060883;28;45335;-73
2022/07/24 02:28:37;;;;;;;;;23.67;23.33;;;;;20.99;73.08;101491.38;5042723;28;47879;-73
2022/07/24 02:31:02;;;;;;;;;26.67;23.67;;;;;20.93;72.64;101482.31;5060862;28;45328;-74
2022/07/24 02:33:28;;;;;;;;;20.67;20.33;;;;;20.94;73.12;101493.91;5060702;28;46092;-74
2022/07/24 02:35:53;;;;;;;;;22.33;21.67;;;;;20.93;73.53;101498.53;5047681;28;46341;-73
2022/07/24 02:38:18;;;;;;;;;26.33;26.00;;;;;20.91;73.49;101494.38;5060448;28;45330;-74
2022/07/24 02:40:44;;;;;;;;;25.00;24.67;;;;;20.91;74.08;101488.97;5060886;28;45324;-73
2022/07/24 02:43:09;;;;;;;;;24.33;24.00;;;;;20.84;73.76;101477.38;5060970;28;45297;-73
2022/07/24 02:45:34;;;;;;;;;23.33;23.00;;;;;20.87;74.03;101485.03;5060573;28;45417;-73
2022/07/24 02:48:00;;;;;;;;;24.67;22.67;;;;;20.79;74.05;101475.38;5060432;28;45919;-73
2022/07/24 02:50:31;;;;;;;;;21.67;20.67;;;;;20.82;74.20;101480.31;5060464;28;45445;-73
2022/07/24 02:52:56;;;;;;;;;24.67;23.33;;;;;20.73;74.28;101471.69;5060626;28;45367;-73
2022/07/24 02:55:21;;;;;;;;;21.33;21.33;;;;;20.58;74.29;101455.03;5060580;28;45415;-74
2022/07/24 02:57:47;;;;;;;;;21.33;21.00;;;;;20.64;74.57;101470.34;5060500;28;45355;-74
2022/07/24 03:00:16;;;;;;;;;21.67;21.33;;;;;20.65;74.84;101464.72;5060522;28;45376;-73
2022/07/24 03:02:42;;;;;;;;;23.33;21.00;;;;;20.65;74.69;101466.59;5039750;28;45365;-74
2022/07/24 03:05:08;;;;;;;;;24.67;23.67;;;;;20.60;74.57;101452.94;5060150;28;45426;-73
2022/07/24 03:07:36;;;;;;;;;22.33;22.33;;;;;20.66;74.57;101458.28;5060253;28;46152;-73
2022/07/24 03:10:03;;;;;;;;;21.67;20.67;;;;;20.68;74.97;101460.72;5058074;28;45315;-73
2022/07/24 03:12:28;;;;;;;;;23.33;23.33;;;;;20.65;74.89;101455.81;5060620;28;45395;-74
2022/07/24 03:14:54;;;;;;;;;22.33;22.33;;;;;20.65;75.08;101453.91;5042016;28;46036;-73
2022/07/24 03:17:19;;;;;;;;;26.67;24.33;;;;;20.54;75.29;101442.00;5064991;28;46444;-74
2022/07/24 03:19:44;;;;;;;;;24.67;23.00;;;;;20.56;74.85;101450.69;5059395;28;45308;-73
2022/07/24 03:22:10;;;;;;;;;22.33;21.33;;;;;20.47;75.44;101443.09;5042240;28;45395;-73
2022/07/24 03:24:35;;;;;;;;;25.67;24.00;;;;;20.41;75.31;101447.53;5041741;28;45918;-73
2022/07/24 03:27:00;;;;;;;;;23.00;22.33;;;;;20.36;75.78;101452.75;5059831;28;46491;-74
2022/07/24 03:29:26;;;;;;;;;26.00;25.00;;;;;20.29;75.95;101450.13;5060098;28;45210;-74
2022/07/24 03:31:51;;;;;;;;;25.33;24.00;;;;;20.26;75.89;101451.41;5059969;28;45196;-74
2022/07/24 03:34:16;;;;;;;;;12.00;12.00;;;;;20.14;76.30;101426.22;5060125;28;45343;-74
2022/07/24 03:36:42;;;;;;;;;20.67;20.67;;;;;20.20;75.95;101454.16;5059826;28;45414;-73
2022/07/24 03:39:07;;;;;;;;;23.33;22.00;;;;;20.12;76.62;101439.91;5059929;28;45189;-73
2022/07/24 03:41:33;;;;;;;;;20.00;20.00;;;;;20.04;76.56;101437.47;5060162;28;45229;-73
2022/07/24 03:43:58;;;;;;;;;25.33;25.33;;;;;20.10;76.89;101451.94;5059531;28;45321;-73
2022/07/24 03:46:24;;;;;;;;;21.00;21.00;;;;;20.12;77.09;101449.88;5059413;28;46237;-73
2022/07/24 03:48:49;;;;;;;;;25.00;25.00;;;;;20.13;76.97;101456.91;5041653;28;45381;-74
2022/07/24 03:51:15;;;;;;;;;25.00;22.00;;;;;20.09;76.98;101443.06;5059522;28;45306;-73
2022/07/24 03:53:40;;;;;;;;;24.33;24.00;;;;;20.11;76.95;101448.22;5059526;28;45403;-73
2022/07/24 03:56:09;;;;;;;;;25.00;23.33;;;;;20.12;77.28;101457.97;5059474;28;46355;-73
2022/07/24 03:58:35;;;;;;;;;28.00;26.67;;;;;20.12;76.96;101455.28;5059640;28;45353;-73
2022/07/24 04:01:00;;;;;;;;;25.33;22.00;;;;;20.15;77.18;101455.66;5059491;28;45285;-74
2022/07/24 04:03:26;;;;;;;;;25.33;24.67;;;;;20.15;77.57;101455.66;5059456;28;45910;-73
2022/07/24 04:05:51;;;;;;;;;25.67;25.33;;;;;20.08;77.23;101443.28;5059475;28;45525;-73
2022/07/24 04:08:16;;;;;;;;;23.33;23.33;;;;;20.12;77.38;101456.09;5059178;28;45369;-73
2022/07/24 04:10:42;;;;;;;;;25.33;23.00;;;;;20.03;77.44;101447.44;5041394;28;45359;-73
2022/07/24 04:13:07;;;;;;;;;28.00;26.00;;;;;20.13;76.98;101456.91;5041070;28;47172;-73
2022/07/24 04:15:33;;;;;;;;;26.33;25.33;;;;;20.10;77.11;101451.94;5059475;28;46284;-73
2022/07/24 04:17:58;;;;;;;;;26.67;25.67;;;;;20.08;77.15;101451.38;5045645;28;46073;-73
2022/07/24 04:20:24;;;;;;;;;24.67;24.67;;;;;20.06;77.11;101448.88;5041522;28;45293;-73
2022/07/24 04:22:49;;;;;;;;;26.33;24.67;;;;;20.05;77.33;101458.00;5041008;28;46176;-73
2022/07/24 04:25:14;;;;;;;;;26.00;23.00;;;;;20.05;77.56;101455.31;5058833;28;45659;-73
2022/07/24 04:27:40;;;;;;;;;26.33;25.67;;;;;20.03;77.59;101452.03;5059395;28;45232;-74
2022/07/24 04:30:06;;;;;;;;;26.00;25.00;;;;;19.98;77.63;101447.25;5059157;28;45389;-74
2022/07/24 04:32:31;;;;;;;;;25.00;23.00;;;;;19.99;77.83;101450.78;5057732;28;46485;-74
2022/07/24 04:34:57;;;;;;;;;26.00;26.00;;;;;20.00;78.21;101457.81;5058581;28;45506;-74
2022/07/24 04:37:22;;;;;;;;;23.00;22.00;;;;;20.04;77.84;101464.47;5059121;28;45287;-74
2022/07/24 04:39:48;;;;;;;;;25.67;25.00;;;;;20.00;77.47;101455.13;5059102;28;45331;-74
2022/07/24 04:42:14;;;;;;;;;26.00;24.67;;;;;19.98;77.71;101455.34;5055962;28;46982;-75
2022/07/24 04:44:39;;;;;;;;;27.33;25.33;;;;;20.01;77.93;101468.44;5058780;28;45573;-74
2022/07/24 04:47:05;;;;;;;;;24.00;23.67;;;;;20.06;77.80;101462.38;5053689;28;45408;-74
2022/07/24 04:49:30;;;;;;;;;29.33;27.00;;;;;20.11;78.01;101472.50;5058776;28;45330;-74
2022/07/24 04:51:55;;;;;;;;;26.00;25.33;;;;;20.12;77.79;101471.47;5047676;28;45943;-74
2022/07/24 04:54:21;;;;;;;;;22.00;21.67;;;;;20.10;78.26;101465.44;5058432;28;45357;-74
2022/07/24 04:56:46;;;;;;;;;25.33;22.33;;;;;20.12;78.16;101471.47;5058898;28;45185;-74
2022/07/24 04:59:11;;;;;;;;;27.67;27.33;;;;;20.11;78.07;101465.22;5040642;28;45496;-74
2022/07/24 05:01:38;;;;;;;;;25.33;24.00;;;;;20.18;78.12;101470.59;5058617;28;45295;-74
2022/07/24 05:04:03;;;;;;;;;25.00;24.00;;;;;20.12;78.22;101460.66;5058522;28;45453;-74
2022/07/24 05:06:29;;;;;;;;;26.00;25.67;;;;;20.20;78.30;101475.75;5058291;28;45261;-73
2022/07/24 05:08:54;;;;;;;;;25.33;24.33;;;;;20.18;78.40;101467.88;5047246;28;45303;-74
2022/07/24 05:11:20;;;;;;;;;24.67;23.33;;;;;20.16;78.54;101468.09;5036914;28;47293;-75
2022/07/24 05:13:45;;;;;;;;;24.33;24.00;;;;;20.13;78.31;101463.16;5038346;28;45408;-74
2022/07/24 05:16:10;;;;;;;;;25.33;25.33;;;;;20.16;78.60;101472.66;5050728;28;45378;-74
2022/07/24 05:18:35;;;;;;;;;23.33;23.33;;;;;20.18;78.75;101457.91;5037680;28;45381;-74
2022/07/24 05:21:01;;;;;;;;;26.00;25.67;;;;;20.31;78.59;101469.63;5038324;28;45462;-75
2022/07/24 05:23:26;;;;;;;;;22.67;22.67;;;;;20.35;78.77;101464.63;5037990;28;46453;-74
2022/07/24 05:25:51;;;;;;;;;24.67;24.00;;;;;20.34;79.07;101463.78;5038470;28;45538;-73
2022/07/24 05:28:17;;;;;;;;;25.00;24.00;;;;;20.27;78.71;101455.75;5038433;28;45319;-74
2022/07/24 05:30:42;;;;;;;;;29.00;27.67;;;;;20.30;79.17;101452.59;5038357;28;45272;-74
2022/07/24 05:33:08;;;;;;;;;22.00;21.33;;;;;20.37;78.92;101463.34;5037887;28;45412;-74
2022/07/24 05:35:33;;;;;;;;;21.67;21.67;;;;;20.38;78.88;101464.19;5038040;28;45374;-74
2022/07/24 05:37:58;;;;;;;;;22.67;22.00;;;;;20.36;78.82;101455.47;5038297;28;45489;-73
2022/07/24 05:40:24;;;;;;;;;20.00;20.00;;;;;20.46;78.97;101463.88;5037986;28;45621;-74
2022/07/24 05:42:49;;;;;;;;;23.00;20.33;;;;;20.49;79.21;101463.44;5038091;28;46236;-74
2022/07/24 05:45:14;;;;;;;;;24.67;24.67;;;;;20.54;79.07;101466.28;5041347;28;45428;-74
2022/07/24 05:47:41;;;;;;;;;25.67;25.00;;;;;20.53;78.85;101453.81;5041381;28;45526;-74
2022/07/24 05:50:09;;;;;;;;;20.00;19.00;;;;;20.64;78.56;101475.72;5036739;28;45951;-74
2022/07/24 05:52:35;;;;;;;;;21.67;21.00;;;;;20.69;78.74;101459.69;5036764;28;45338;-74
2022/07/24 05:55:00;;;;;;;;;25.33;25.00;;;;;20.68;78.74;101455.31;5041482;28;45560;-74
2022/07/24 05:57:25;;;;;;;;;22.00;20.00;;;;;20.74;78.32;101462.53;5050654;28;45913;-74
2022/07/24 05:59:51;;;;;;;;;23.67;23.00;;;;;20.74;78.13;101445.53;5041276;28;45398;-74
2022/07/24 06:02:16;;;;;;;;;17.67;17.67;;;;;20.87;78.44;101460.72;5041119;28;45607;-73
2022/07/24 06:04:41;;;;;;;;;22.00;20.33;;;;;20.78;77.98;101441.31;5041192;28;45553;-74
2022/07/24 06:07:09;;;;;;;;;22.00;21.33;;;;;20.99;77.72;101460.81;5041387;28;45314;-74
2022/07/24 06:09:34;;;;;;;;;24.67;22.00;;;;;21.02;77.27;101450.41;5052151;28;45485;-74
2022/07/24 06:12:00;;;;;;;;;24.00;23.33;;;;;21.13;77.54;101451.50;5043822;28;46884;-74
2022/07/24 06:14:25;;;;;;;;;20.67;20.67;;;;;21.16;76.54;101448.34;5041170;28;45245;-74
2022/07/24 06:16:50;;;;;;;;;20.00;20.00;;;;;21.28;76.12;101448.38;5055601;28;45285;-74
2022/07/24 06:19:15;;;;;;;;;18.00;18.00;;;;;21.31;76.73;101458.72;5040968;28;45244;-74
2022/07/24 06:21:41;;;;;;;;;19.00;19.00;;;;;21.35;77.05;101455.56;5040852;28;46179;-74
2022/07/24 06:24:06;;;;;;;;;24.00;22.33;;;;;21.42;76.48;101456.31;5040853;28;45215;-74
2022/07/24 06:26:32;;;;;;;;;17.33;17.33;;;;;21.50;76.07;101453.28;5040909;28;45327;-74
2022/07/24 06:28:57;;;;;;;;;18.33;18.33;;;;;21.53;75.91;101443.88;5041080;28;45582;-74
2022/07/24 06:31:22;;;;;;;;;19.67;19.67;;;;;21.60;74.21;101446.47;5040681;28;46566;-74
2022/07/24 06:33:48;;;;;;;;;20.00;19.00;;;;;21.65;74.36;101446.63;5040792;28;45233;-75
2022/07/24 06:36:13;;;;;;;;;18.67;18.67;;;;;21.69;73.42;101439.69;5041024;28;45434;-74
2022/07/24 06:38:38;;;;;;;;;21.33;18.33;;;;;21.72;73.51;101430.25;5040472;28;45434;-75
2022/07/24 06:41:04;;;;;;;;;21.67;18.67;;;;;21.87;73.60;101443.38;5039282;28;47336;-75
2022/07/24 06:43:29;;;;;;;;;21.00;19.67;;;;;21.89;72.71;101433.16;5040409;28;45332;-75
2022/07/24 06:45:54;;;;;;;;;22.00;21.33;;;;;22.04;73.42;101447.06;5040764;28;45297;-75
2022/07/24 06:48:20;;;;;;;;;18.33;18.33;;;;;22.09;73.17;101438.25;5040531;28;45423;-74
2022/07/24 06:50:46;;;;;;;;;19.00;18.00;;;;;22.25;73.42;101444.00;5040254;28;46476;-75
2022/07/24 06:53:11;;;;;;;;;21.33;20.00;;;;;22.38;72.88;101434.78;5040484;28;45425;-74
2022/07/24 06:55:36;;;;;;;;;20.00;18.67;;;;;22.49;73.92;101433.97;5039626;28;45378;-75
2022/07/24 06:58:02;;;;;;;;;20.33;20.00;;;;;22.46;72.93;101426.31;5040253;28;45570;-75
2022/07/24 07:00:27;;;;;;;;;20.33;19.67;;;;;22.60;72.82;101420.66;5040581;28;45387;-75
2022/07/24 07:02:52;;;;;;;;;23.00;21.67;;;;;22.72;73.02;101432.31;5052085;28;45442;-75
2022/07/24 07:05:18;;;;;;;;;23.33;22.67;;;;;22.78;72.48;101428.63;5044284;28;45383;-74
2022/07/24 07:07:43;;;;;;;;;23.00;21.67;;;;;22.95;71.77;101438.69;5040178;28;45364;-76
2022/07/24 07:10:09;;;;;;;;;26.33;23.67;;;;;22.97;71.80;101424.91;5043829;28;46387;-75
2022/07/24 07:12:35;;;;;;;;;21.00;21.00;;;;;23.06;72.03;101424.28;5060258;28;45608;-75
2022/07/24 07:15:01;;;;;;;;;22.00;20.67;;;;;23.20;71.73;101435.66;5060281;28;45312;-75
2022/07/24 07:17:27;;;;;;;;;24.33;21.67;;;;;23.28;71.98;101433.59;5046799;28;46422;-75
2022/07/24 07:19:52;;;;;;;;;23.33;20.33;;;;;23.33;71.59;101428.28;5060033;28;46106;-75
2022/07/24 07:22:17;;;;;;;;;22.67;22.67;;;;;23.42;71.71;101426.03;5047186;28;45336;-75
2022/07/24 07:24:43;;;;;;;;;22.33;22.00;;;;;23.56;71.08;101429.25;5060105;28;45220;-75
2022/07/24 07:27:08;;;;;;;;;22.67;22.67;;;;;23.61;70.75;101429.31;5060128;28;45302;-74
2022/07/24 07:29:33;;;;;;;;;25.00;23.00;;;;;23.67;70.50;101422.09;5038636;28;47625;-76
2022/07/24 07:31:59;;;;;;;;;21.00;21.00;;;;;23.79;70.33;101414.69;5057827;28;45406;-74
2022/07/24 07:34:24;;;;;;;;;24.00;21.00;;;;;23.88;70.58;101431.38;5060286;28;45288;-75
2022/07/24 07:36:49;;;;;;;;;24.00;23.00;;;;;24.00;70.35;101431.28;5059987;28;45633;-74
2022/07/24 07:39:15;;;;;;;;;23.33;21.00;;;;;24.07;69.95;101431.13;5059848;28;46464;-74
2022/07/24 07:41:40;;;;;;;;;27.33;25.33;;;;;24.13;69.18;101418.44;5059865;28;45410;-75
2022/07/24 07:44:05;;;;;;;;;21.33;20.33;;;;;24.18;68.87;101411.22;5059704;28;45446;-75
2022/07/24 07:46:31;;;;;;;;;22.67;21.67;;;;;24.31;68.72;101430.94;5059562;28;45529;-74
2022/07/24 07:48:56;;;;;;;;;21.67;21.00;;;;;24.36;68.23;101424.78;5059720;28;45991;-75
2022/07/24 07:51:22;;;;;;;;;22.00;22.00;;;;;24.48;68.38;101433.59;5053842;28;45369;-74
2022/07/24 07:53:47;;;;;;;;;24.67;23.33;;;;;24.55;68.24;101425.28;5051477;28;45464;-74
2022/07/24 07:56:13;;;;;;;;;26.67;25.00;;;;;24.63;67.76;101424.03;5059509;28;45597;-75
2022/07/24 07:58:38;;;;;;;;;25.67;25.00;;;;;24.67;67.79;101434.13;5059575;28;46833;-74
2022/07/24 08:01:03;;;;;;;;;24.67;20.33;;;;;24.69;67.83;101412.94;5053423;28;45323;-74
2022/07/24 08:03:29;;;;;;;;;25.00;24.00;;;;;24.81;67.44;101412.81;5041613;28;45435;-74
2022/07/24 08:05:54;;;;;;;;;20.00;20.00;;;;;24.92;67.82;101423.81;5040973;28;45807;-74
2022/07/24 08:08:20;;;;;;;;;22.00;20.67;;;;;25.00;67.79;101415.22;5040801;28;46176;-74
2022/07/24 08:10:45;;;;;;;;;21.67;21.67;;;;;25.05;67.31;101409.84;5032452;28;45710;-75
2022/07/24 08:13:12;;;;;;;;;24.00;24.00;;;;;25.11;67.14;101399.81;5041415;28;45394;-75
2022/07/24 08:15:37;;;;;;;;;24.67;24.33;;;;;25.25;66.91;101413.00;5059734;28;45230;-75
2022/07/24 08:18:03;;;;;;;;;24.67;24.67;;;;;25.31;66.01;101409.25;5063579;28;45624;-76
2022/07/24 08:20:29;;;;;;;;;22.33;22.33;;;;;25.47;66.04;101418.41;5056576;28;45490;-74
2022/07/24 08:22:55;;;;;;;;;26.00;26.00;;;;;25.55;66.02;101419.78;5042698;28;45267;-75
2022/07/24 08:25:20;;;;;;;;;24.67;23.00;;;;;25.62;65.87;101404.09;5058506;28;45455;-75
2022/07/24 08:27:47;;;;;;;;;22.67;22.00;;;;;25.74;65.16;101417.56;5059118;28;45465;-75
2022/07/24 08:30:13;;;;;;;;;25.67;24.67;;;;;25.77;65.32;101406.13;5058681;28;45343;-75
2022/07/24 08:32:38;;;;;;;;;21.67;21.67;;;;;25.87;64.75;101402.66;5040581;28;45440;-75
2022/07/24 08:35:05;;;;;;;;;22.00;22.00;;;;;25.83;63.79;101388.75;5047115;28;47200;-75
2022/07/24 08:37:41;;;;;;;;;21.67;20.67;;;;;26.02;64.08;101407.38;5058575;28;46387;-74
2022/07/24 08:40:08;;;;;;;;;21.67;20.00;;;;;26.07;63.71;101395.69;5040826;28;45332;-75
2022/07/24 08:42:35;;;;;;;;;23.33;22.33;;;;;26.15;63.63;101392.47;5058808;28;45207;-75
2022/07/24 08:45:01;;;;;;;;;21.00;20.00;;;;;26.25;63.41;101397.16;5058747;28;45429;-75
2022/07/24 08:47:28;;;;;;;;;19.67;19.00;;;;;26.38;63.11;101397.78;5058428;28;45293;-75
2022/07/24 08:49:54;;;;;;;;;19.00;19.00;;;;;26.42;63.12;101387.97;5040868;28;45436;-75
2022/07/24 08:52:24;;;;;;;;;19.67;19.67;;;;;26.47;62.19;101382.56;5058708;28;45483;-75
2022/07/24 08:54:50;;;;;;;;;18.00;17.67;;;;;26.54;60.94;101377.69;5044425;28;45698;-75
2022/07/24 08:57:16;;;;;;;;;19.67;19.67;;;;;26.66;61.95;101380.16;5058652;28;45332;-75
2022/07/24 08:59:42;;;;;;;;;19.33;19.33;;;;;26.79;61.46;101387.00;5036991;28;45801;-75
2022/07/24 09:02:08;;;;;;;;;20.33;20.33;;;;;26.84;60.18;101381.56;5036772;28;45461;-75
2022/07/24 09:04:45;;;;;;;;;17.33;16.33;;;;;26.89;59.26;101377.22;5054534;28;45404;-75
2022/07/24 09:07:15;;;;;;;;;16.33;15.00;;;;;26.94;59.21;101366.31;5058417;28;45557;-74
2022/07/24 09:09:42;;;;;;;;;18.67;16.67;;;;;27.00;57.85;101367.19;5053263;28;45746;-75
2022/07/24 09:12:15;;;;;;;;;15.33;15.33;;;;;27.09;57.79;101374.53;5064355;28;45292;-75
2022/07/24 09:14:43;;;;;;;;;16.00;16.00;;;;;27.11;57.54;101360.63;5059704;28;45227;-75
2022/07/24 09:17:12;;;;;;;;;15.67;15.67;;;;;27.19;56.80;101370.19;5041044;28;48374;-75
2022/07/24 09:19:56;;;;;;;;;15.00;15.00;;;;;27.25;56.72;101363.66;5056325;28;45400;-73
2022/07/24 09:22:25;;;;;;;;;16.00;14.00;;;;;27.28;56.86;101354.09;5062616;28;45340;-76
2022/07/24 09:25:12;;;;;;;;;15.00;15.00;;;;;27.40;56.25;101360.09;5054011;28;45276;-77
2022/07/24 09:27:46;;;;;;;;;15.33;15.00;;;;;27.45;54.44;101348.38;5055228;28;45433;-74
2022/07/24 09:30:22;;;;;;;;;14.33;14.33;;;;;27.53;54.17;101353.25;5064283;28;45462;-75
2022/07/24 09:32:55;;;;;;;;;13.33;13.33;;;;;27.57;53.96;101346.16;5061099;28;45350;-75
2022/07/24 09:35:37;;;;;;;;;13.67;13.67;;;;;27.58;53.32;101344.25;5056384;28;44795;-75
2022/07/24 09:38:04;;;;;;;;;13.33;13.33;;;;;27.61;52.57;101340.97;5049935;28;48056;-77
2022/07/24 09:40:38;;;;;;;;;14.00;14.00;;;;;27.62;51.73;101333.59;5070407;28;45277;-78
2022/07/24 09:43:14;;;;;;;;;12.67;11.67;;;;;27.76;52.32;101347.50;5048725;28;44690;-78
2022/07/24 09:46:03;;;;;;;;;14.00;14.00;;;;;27.79;52.74;101334.13;5061707;28;45303;-79
2022/07/24 09:48:31;;;;;;;;;13.67;12.67;;;;;27.87;51.98;101326.47;5041734;28;47342;-78
2022/07/24 09:51:04;;;;;;;;;12.67;11.00;;;;;27.97;50.74;101323.69;5051092;28;45880;-78
2022/07/24 09:53:31;;;;;;;;;12.67;12.00;;;;;28.05;50.25;101328.59;5052801;28;45411;-78
2022/07/24 09:56:23;;;;;;;;;15.00;14.67;;;;;28.19;50.14;101325.25;5046897;28;45395;-77
2022/07/24 09:58:55;;;;;;;;;13.00;13.00;;;;;28.18;50.07;101312.69;5053357;28;45529;-78
2022/07/24 10:01:24;;;;;;;;;12.33;11.67;;;;;28.32;49.50;101332.88;5044232;28;45560;-78
2022/07/24 10:03:51;;;;;;;;;12.00;11.33;;;;;28.40;48.66;101314.25;5056126;28;45241;-78
2022/07/24 10:06:22;;;;;;;;;14.67;10.33;;;;;28.48;49.69;101324.56;5054939;28;45387;-78
2022/07/24 10:08:50;;;;;;;;;7.00;6.00;;;;;28.56;49.16;101324.00;5064414;28;45389;-78
2022/07/24 10:11:16;;;;;;;;;10.67;10.00;;;;;28.67;48.25;101327.47;5061590;28;45615;-79
2022/07/24 10:13:43;;;;;;;;;12.67;12.67;;;;;28.71;46.84;101316.78;5062061;28;45296;-77
2022/07/24 10:16:11;;;;;;;;;13.67;13.00;;;;;28.82;47.33;101318.34;5057654;28;46531;-77
2022/07/24 10:18:52;;;;;;;;;12.00;10.67;;;;;28.93;46.18;101315.53;5063492;28;45465;-77
2022/07/24 10:21:20;;;;;;;;;12.67;12.33;;;;;28.99;46.37;101314.41;5062841;28;45348;-76
2022/07/24 10:23:52;;;;;;;;;12.33;12.33;;;;;29.11;45.06;101312.13;5069569;28;45825;-77
2022/07/24 10:26:40;;;;;;;;;12.00;12.00;;;;;29.20;44.74;101312.31;5068224;28;45509;-76
2022/07/24 10:29:13;;;;;;;;;13.67;13.00;;;;;29.32;45.20;101314.69;5065359;28;46212;-77
2022/07/24 10:31:48;;;;;;;;;10.67;10.67;;;;;29.38;44.57;101309.97;5049195;28;46008;-76
2022/07/24 10:34:19;;;;;;;;;10.67;10.67;;;;;29.55;45.32;101304.06;5060248;28;45184;-78
2022/07/24 10:37:08;;;;;;;;;11.00;11.00;;;;;29.67;43.86;101302.84;5049649;28;45450;-78
2022/07/24 10:39:50;;;;;;;;;10.33;9.67;;;;;29.86;42.62;101303.72;5044608;28;48363;-78
2022/07/24 10:42:15;;;;;;;;;14.00;12.67;;;;;29.99;40.08;101298.66;5045539;28;45519;-78
2022/07/24 10:44:41;;;;;;;;;10.67;10.67;;;;;30.15;43.23;101303.91;5070222;28;45177;-77
2022/07/24 10:50:56;;;;;;;;;10.67;10.67;;;;;30.66;42.18;101298.81;5057690;28;45597;-77
2022/07/24 10:53:23;;;;;;;;;11.00;10.33;;;;;30.74;40.90;101284.44;5063043;28;45477;-78
2022/07/24 10:55:48;;;;;;;;;12.33;12.00;;;;;30.90;42.00;101281.47;5064154;28;45442;-77
2022/07/24 10:58:15;;;;;;;;;14.33;14.33;;;;;31.09;40.86;101284.16;5053437;28;45300;-77
2022/07/24 11:00:45;;;;;;;;;14.00;13.00;;;;;31.32;40.71;101285.13;5051029;28;47157;-80
2022/07/24 11:03:21;;;;;;;;;12.00;11.00;;;;;31.54;41.38;101285.56;5053527;28;45527;-78
2022/07/24 11:06:06;;;;;;;;;8.33;8.33;;;;;31.68;40.96;101272.66;5061333;28;45351;-79
2022/07/24 11:08:38;;;;;;;;;12.33;11.33;;;;;31.92;41.16;101274.38;5052096;28;46161;-77
2022/07/24 11:11:15;;;;;;;;;13.33;13.33;;;;;32.12;40.24;101273.09;5043521;28;47586;-77